Latest Weather Observations for Cape Wessel

IDD60801

Issued at 9:02 pm CST Friday 27 March 2015 (issued every 30 minutes, with the page automatically refreshed every 10 minutes)

About weather observations | Map of weather stations | Latest weather observations for NT | Other Formats
Station Details ID: 200786 Name: CAPE WESSEL Lat: -11.00 Lon: 136.76 Height: 18.0 m
Data from the previous 72 hours. | See also: Recent months for locations in Northern Territory
Date/Time
CST
Temp
°C
App
Temp
°C
Dew
Point
Rel
Hum
%
Delta-T
°C
Wind Press
QNH
hPa
Press
MSL
hPa
Rain
since 9 am
mm
Dir
 
Spd
km/h
Gust
km/h
Spd
kts
Gust
kts
27/09:00pm 27.4 29.4 23.0 77 3.0 SSE 17 24 9 13 1013.2 1013.1 4.8
27/08:30pm 27.6 29.1 23.0 76 3.1 SSE 20 24 11 13 1013.1 - 4.8
27/08:00pm 27.6 29.2 23.2 77 3.0 S 20 26 11 14 1012.7 - 4.8
27/07:30pm 27.4 29.4 23.0 77 3.0 SSE 17 22 9 12 1012.2 - 4.8
27/07:00pm 27.6 29.5 23.8 80 2.6 SE 20 26 11 14 1012.0 - 4.8
27/06:30pm 27.8 30.3 23.8 79 2.8 SE 17 22 9 12 1011.6 - 4.8
27/06:00pm 28.0 30.2 24.0 79 2.8 SSE 19 24 10 13 1011.5 - 4.8
27/05:30pm 28.3 29.9 23.2 74 3.5 SE 20 26 11 14 1011.3 - 4.8
27/05:00pm 30.1 32.0 23.5 67 4.6 SE 19 26 10 14 1011.2 - 4.8
27/04:30pm 30.8 32.6 24.2 68 4.6 ESE 22 26 12 14 1011.0 - 4.8
27/04:00pm 30.0 31.5 24.4 72 3.9 SE 24 33 13 18 1011.2 - 4.8
27/03:30pm 31.3 35.3 25.6 71 4.0 ESE 15 22 8 12 1011.2 - 4.8
27/03:00pm 30.4 34.6 25.9 77 3.2 E 15 20 8 11 1011.5 1011.4 4.6
27/02:30pm 27.7 32.8 24.9 85 2.0 S 7 17 4 9 1011.7 - 4.6
27/02:14pm 26.9 25.9 21.2 71 3.8 E 28 46 15 25 1012.2 - 4.6
27/02:12pm 27.1 23.2 20.4 66 4.4 ENE 41 46 22 25 1011.9 - 1.2
27/02:00pm 31.0 33.7 24.1 66 4.8 ESE 17 20 9 11 1011.9 - 0.0
27/01:30pm 31.7 34.3 24.0 63 5.4 ESE 17 20 9 11 1012.3 - 0.0
27/01:00pm 32.3 36.2 25.4 67 4.9 E 15 22 8 12 1012.9 - 0.0
27/12:30pm 31.6 34.3 24.2 65 5.2 E 17 20 9 11 1013.4 - 0.0
27/12:00pm 31.6 35.0 24.7 67 4.8 E 15 17 8 9 1014.0 1013.9 0.0
27/11:30am 31.3 35.3 24.4 66 4.8 E 11 15 6 8 1014.4 - 0.0
27/11:00am 31.2 35.0 24.1 66 4.9 E 11 15 6 8 1014.8 - 0.0
27/10:30am 31.6 35.7 25.2 69 4.5 E 13 15 7 8 1014.9 - 0.0
27/10:00am 31.5 35.9 25.1 69 4.5 E 11 15 6 8 1015.0 - 0.0
27/09:30am 30.7 35.7 24.8 71 4.1 W 7 15 4 8 1014.8 - 0.0
27/09:00am 30.3 35.2 24.7 72 3.9 W 7 13 4 7 1014.4 1014.3 0.0
27/08:30am 29.8 34.9 24.7 74 3.6 W 6 13 3 7 1014.0 - 0.0
27/08:00am 28.8 34.5 25.0 80 2.7 W 4 9 2 5 1013.7 - 0.0
27/07:30am 27.3 33.1 25.7 91 1.1 W 6 7 3 4 1013.3 - 0.0
27/07:00am 26.0 30.8 24.4 91 1.1 WSW 7 9 4 5 1013.0 - 0.0
27/06:30am 25.1 28.8 23.3 90 1.2 SSE 9 9 5 5 1012.7 - 0.0
27/06:00am 25.2 29.4 23.4 90 1.2 SE 7 11 4 6 1012.7 1012.6 0.0
27/05:30am 25.3 28.8 23.5 90 1.2 SE 11 11 6 6 1012.9 - 0.0
27/05:00am 25.6 29.7 24.0 91 1.1 ESE 9 11 5 6 1012.9 - 0.0
27/04:30am 25.6 29.5 23.6 89 1.4 E 9 9 5 5 1012.9 - 0.0
27/04:00am 25.5 29.4 23.6 89 1.3 E 9 11 5 6 1013.0 - 0.0
27/03:30am 25.6 29.1 23.6 89 1.4 ENE 11 11 6 6 1013.2 - 0.0
27/03:00am 25.5 28.5 23.4 88 1.4 ENE 13 13 7 7 1013.3 1013.2 0.0
27/02:30am 25.8 29.8 23.7 88 1.4 ENE 9 11 5 6 1013.7 - 0.0
27/02:00am 25.9 29.4 23.6 87 1.6 ENE 11 11 6 6 1013.9 - 0.0
27/01:30am 25.8 29.5 23.3 86 1.7 ENE 9 11 5 6 1014.4 - 0.0
27/01:00am 26.0 30.1 23.3 85 1.8 ENE 7 9 4 5 1014.9 - 0.0
27/12:30am 26.2 30.3 23.3 84 2.0 ENE 7 9 4 5 1015.1 - 0.0
27/12:00am 26.7 31.0 23.6 83 2.1 ENE 7 9 4 5 1015.5 1015.4 0.0
 
Date/Time
CST
Temp
°C
App
Temp
°C
Dew
Point
Rel
Hum
%
Delta-T
°C
Wind Press
QNH
hPa
Press
MSL
hPa
Rain
since 9 am
mm
Dir
 
Spd
km/h
Gust
km/h
Spd
kts
Gust
kts
26/11:30pm 26.8 32.4 23.5 82 2.3 CALM 0 0 0 0 1015.8 - 0.0
26/11:00pm 26.6 30.9 23.3 82 2.3 ENE 6 11 3 6 1015.9 - 0.0
26/10:30pm 26.8 31.2 23.5 82 2.3 ENE 6 7 3 4 1015.7 - 0.0
26/10:00pm 26.8 31.1 23.3 81 2.4 E 6 9 3 5 1015.5 - 0.0
26/09:30pm 27.1 31.4 23.6 81 2.4 E 7 11 4 6 1015.3 - 0.0
26/09:00pm 27.3 31.1 23.5 80 2.6 ENE 9 11 5 6 1015.2 1015.1 0.0
26/08:30pm 27.5 31.1 23.7 80 2.6 ENE 11 15 6 8 1014.7 - 0.0
26/08:00pm 27.5 30.7 23.7 80 2.6 ENE 13 15 7 8 1014.3 - 0.0
26/07:30pm 27.9 31.8 24.3 81 2.5 ENE 11 15 6 8 1014.0 - 0.0
26/07:00pm 28.0 31.9 24.2 80 2.6 ENE 11 15 6 8 1013.5 - 0.0
26/06:30pm 28.3 31.0 23.4 75 3.4 E 15 19 8 10 1013.3 - 0.0
26/06:00pm 29.2 31.4 23.9 73 3.7 E 19 24 10 13 1013.1 1013.0 0.0
26/05:30pm 29.3 32.3 24.0 73 3.7 SE 15 20 8 11 1012.7 - 0.0
26/05:00pm 30.5 33.7 24.4 70 4.3 E 15 19 8 10 1012.6 - 0.0
26/04:30pm 30.5 32.9 23.7 67 4.7 E 17 20 9 11 1012.2 - 0.0
26/04:00pm 31.3 34.4 24.2 66 5.0 ENE 15 20 8 11 1012.1 - 0.0
26/03:30pm 31.6 34.5 24.5 66 5.0 ENE 17 22 9 12 1012.0 - 0.0
26/03:00pm 31.6 34.9 24.5 66 5.0 ENE 15 19 8 10 1012.0 1011.9 0.0
26/02:30pm 31.6 34.7 24.2 65 5.2 E 15 19 8 10 1012.2 - 0.0
26/02:00pm 32.1 35.2 24.2 63 5.5 E 15 19 8 10 1012.5 - 0.0
26/01:30pm 32.2 35.7 25.5 67 4.8 NE 17 20 9 11 1012.7 - 0.0
26/01:00pm 32.4 37.4 26.0 69 4.6 NE 11 15 6 8 1013.3 - 0.0
26/12:30pm 31.7 35.7 25.1 68 4.7 NE 13 15 7 8 1014.0 - 0.0
26/12:00pm 31.2 34.9 24.6 68 4.6 NE 13 17 7 9 1014.2 1014.1 0.0
26/11:30am 31.4 35.4 25.0 69 4.5 ENE 13 17 7 9 1014.5 - 0.0
26/11:00am 31.3 34.7 24.7 68 4.6 E 15 19 8 10 1014.7 - 0.0
26/10:30am 31.0 34.7 24.6 68 4.5 E 13 17 7 9 1015.1 - 0.0
26/10:00am 30.9 35.1 24.8 70 4.3 ENE 11 13 6 7 1015.3 - 0.0
26/09:30am 30.1 34.0 24.9 73 3.7 ENE 13 17 7 9 1015.1 - 0.0
26/09:00am 30.2 34.6 25.0 73 3.7 ENE 11 13 6 7 1014.8 1014.7 2.8
26/08:30am 30.8 35.5 25.6 74 3.7 ENE 11 15 6 8 1014.4 - 2.8
26/08:00am 29.2 33.7 25.2 79 2.8 NNE 11 13 6 7 1014.3 - 2.8
26/07:30am 28.3 33.0 24.9 82 2.4 NNW 9 11 5 6 1013.8 - 2.8
26/07:00am 27.2 31.7 24.6 86 1.8 NNW 9 11 5 6 1013.5 - 2.8
26/06:30am 26.8 31.4 24.1 85 1.9 ENE 7 9 4 5 1013.2 - 2.8
26/06:00am 27.0 31.4 24.5 86 1.7 ENE 9 11 5 6 1013.1 1013.0 2.8
26/05:30am 27.2 31.3 24.5 85 1.9 NE 11 15 6 8 1013.0 - 2.8
26/05:00am 27.3 30.4 24.2 83 2.1 NE 15 19 8 10 1012.8 - 2.8
26/04:30am 27.3 31.4 24.6 85 1.9 ENE 11 15 6 8 1012.4 - 2.8
26/04:00am 27.2 31.3 24.5 85 1.9 ENE 11 17 6 9 1012.3 - 2.8
26/03:30am 27.4 30.6 24.3 83 2.1 ENE 15 20 8 11 1012.2 - 2.8
26/03:00am 27.4 29.9 24.5 84 2.0 E 19 20 10 11 1012.2 1012.1 2.8
26/02:30am 27.4 29.9 24.5 84 2.0 E 19 22 10 12 1012.4 - 2.8
26/02:00am 27.7 31.1 24.7 84 2.1 ENE 15 20 8 11 1012.7 - 2.8
26/01:30am 27.5 30.4 23.9 81 2.5 ENE 15 20 8 11 1012.9 - 2.8
26/01:00am 27.5 30.1 23.9 81 2.5 ENE 17 20 9 11 1013.3 - 2.8
26/12:30am 27.5 29.7 23.9 81 2.5 ENE 19 22 10 12 1013.5 - 2.8
26/12:00am 27.4 29.9 23.8 81 2.5 ENE 17 20 9 11 1013.7 1013.6 2.8
 
Date/Time
CST
Temp
°C
App
Temp
°C
Dew
Point
Rel
Hum
%
Delta-T
°C
Wind Press
QNH
hPa
Press
MSL
hPa
Rain
since 9 am
mm
Dir
 
Spd
km/h
Gust
km/h
Spd
kts
Gust
kts
25/11:30pm 27.3 30.1 23.7 81 2.5 ENE 15 20 8 11 1014.0 - 2.8
25/11:00pm 27.5 30.1 23.9 81 2.5 ENE 17 20 9 11 1014.2 - 2.8
25/10:30pm 27.3 30.0 23.5 80 2.6 ENE 15 19 8 10 1014.1 - 2.8
25/10:00pm 27.2 29.8 23.9 82 2.3 ENE 17 20 9 11 1013.9 - 2.8
25/09:30pm 27.2 29.9 24.1 83 2.1 ENE 17 20 9 11 1013.8 - 2.8
25/09:00pm 27.3 30.3 24.6 85 1.9 E 17 20 9 11 1013.4 1013.3 2.8
25/08:30pm 27.3 29.8 24.4 84 2.0 E 19 22 10 12 1013.3 - 2.8
25/08:00pm 27.4 29.9 24.7 85 1.9 E 20 26 11 14 1013.0 - 2.8
25/07:30pm 27.5 30.4 23.9 81 2.5 NE 15 17 8 9 1012.7 - 2.8
25/07:00pm 27.4 30.2 23.6 80 2.6 NE 15 19 8 10 1012.3 - 2.8
25/06:30pm 27.6 30.3 23.4 78 2.9 NNE 15 19 8 10 1011.7 - 2.8
25/06:00pm 28.1 30.8 23.5 76 3.2 NNE 15 19 8 10 1011.6 1011.5 2.8
25/05:30pm 28.7 31.2 23.8 75 3.4 NNE 17 20 9 11 1011.2 - 2.8
25/05:00pm 28.9 31.4 23.8 74 3.5 NNE 17 20 9 11 1011.1 - 2.8
25/04:30pm 29.0 31.7 24.1 75 3.4 NNE 17 20 9 11 1010.9 - 2.8
25/04:00pm 29.0 31.3 24.1 75 3.4 NNE 19 24 10 13 1010.8 - 2.8
25/03:30pm 29.0 31.4 24.3 76 3.3 N 19 24 10 13 1010.8 - 2.8
25/03:00pm 28.8 31.3 24.4 77 3.1 NNE 19 24 10 13 1010.9 1010.8 2.6
25/02:30pm 28.3 30.2 23.7 76 3.2 NNE 20 26 11 14 1011.1 - 2.6
25/02:00pm 27.9 30.7 24.3 81 2.5 NNE 17 20 9 11 1011.3 - 2.6
25/01:30pm 27.0 29.9 24.5 86 1.7 NNE 17 22 9 12 1011.8 - 2.6
25/01:00pm 26.4 29.0 24.6 90 1.2 NNE 19 24 10 13 1012.1 - 2.6
25/12:30pm 26.4 29.1 24.8 91 1.1 NNE 19 24 10 13 1012.5 - 2.6
25/12:00pm 25.9 28.2 24.5 92 1.0 NNE 20 26 11 14 1013.1 1013.0 2.6
25/11:30am 25.5 27.2 24.1 92 1.0 NNE 22 28 12 15 1013.4 - 2.6
25/11:00am 26.6 29.3 25.0 91 1.1 N 20 28 11 15 1014.0 - 2.4
25/10:30am 26.0 27.9 24.4 91 1.1 NNW 22 30 12 16 1013.7 - 2.2
25/10:00am 26.6 28.7 24.1 86 1.7 W 20 32 11 17 1013.5 - 0.0
25/09:30am 28.0 30.7 24.8 83 2.2 NNE 19 22 10 12 1013.2 - 0.0
25/09:00am 27.7 30.2 24.7 84 2.1 NNE 20 28 11 15 1013.3 1013.2 22.2
25/08:30am 27.4 29.6 24.3 83 2.1 NNE 20 26 11 14 1013.2 - 22.2
25/08:00am 27.0 28.7 24.6 87 1.7 NNE 24 30 13 16 1012.8 - 22.2
25/07:30am 26.8 29.2 24.6 88 1.5 NNE 20 26 11 14 1012.3 - 22.2
25/07:00am 26.9 30.3 24.7 88 1.5 NE 15 19 8 10 1011.9 - 21.8
25/06:30am 26.6 30.2 24.3 87 1.6 NE 13 17 7 9 1011.6 - 21.8
25/06:00am 26.4 29.5 24.1 87 1.6 NNE 15 17 8 9 1011.3 1011.2 21.8
25/05:30am 26.1 29.9 24.1 89 1.4 NNE 11 15 6 8 1011.1 - 21.8
25/05:00am 26.6 30.6 25.0 91 1.1 N 13 17 7 9 1011.0 - 21.8
25/04:30am 26.4 28.7 24.4 89 1.4 N 20 26 11 14 1010.7 - 21.8
25/04:00am 26.3 29.2 23.8 86 1.7 N 15 19 8 10 1010.2 - 21.8
25/03:30am 26.3 28.9 24.0 87 1.6 N 17 20 9 11 1010.7 - 21.8
25/03:00am 26.0 28.1 23.7 87 1.6 NNW 19 22 10 12 1010.2 1010.1 21.8
25/02:30am 26.2 29.4 24.4 90 1.2 NW 15 17 8 9 1010.8 - 21.8
25/02:00am 26.0 27.4 23.5 86 1.7 NNW 22 30 12 16 1010.7 - 21.6
25/01:30am 26.5 28.5 23.6 84 2.0 N 19 26 10 14 1011.0 - 21.4
25/01:00am 26.9 29.4 23.8 83 2.1 N 17 26 9 14 1011.1 - 21.4
25/12:30am 27.5 30.4 24.5 84 2.1 N 17 24 9 13 1011.4 - 21.4
25/12:00am 27.3 29.6 24.4 84 2.0 N 20 24 11 13 1011.9 1011.8 21.4
 
Date/Time
CST
Temp
°C
App
Temp
°C
Dew
Point
Rel
Hum
%
Delta-T
°C
Wind Press
QNH
hPa
Press
MSL
hPa
Rain
since 9 am
mm
Dir
 
Spd
km/h
Gust
km/h
Spd
kts
Gust
kts
24/11:30pm 27.5 28.5 23.5 79 2.7 N 24 32 13 17 1012.0 - 21.4
24/11:00pm 28.1 30.6 24.7 82 2.4 N 20 26 11 14 1011.7 - 21.4
24/10:30pm 27.8 30.2 24.6 83 2.2 N 20 26 11 14 1012.0 - 21.4
24/10:00pm 27.2 29.4 24.3 84 2.0 N 20 26 11 14 1011.8 - 21.4
24/09:30pm 28.0 30.3 25.0 84 2.1 N 22 30 12 16 1011.8 - 21.2

Other Formats:

Comma delimited format used in spreadsheet applications
http://www.bom.gov.au/fwo/IDD60801/IDD60801.94147.axf

JavaScript Object Notation format (JSON) in row-major order
http://www.bom.gov.au/fwo/IDD60801/IDD60801.94147.json